Home > Products > Valid Products > TAF

000
FTUS44 KFWD 301100
TAFFTW
TAF
KFTW 301120Z 3012/0112 16009KT P6SM BKN050 BKN300=



000
FTUS44 KFWD 301100
TAFDFW
TAF
KDFW 301120Z 3012/0118 16010KT P6SM BKN050 BKN300
     FM011300 18013KT P6SM SCT020 SCT100=



000
FTUS44 KFWD 301100
TAFACT
TAF
KACT 301120Z 3012/0112 16008KT P6SM SCT060 SCT300
     FM011000 18007KT P6SM BKN010=



000
FTUS44 KFWD 300800 AAA
TAFDFW
TAF AMD
KDFW 300859Z 3009/0112 15006KT P6SM SCT050 BKN250=



000
FTUS44 KFWD 300800 AAA
TAFACT
TAF AMD
KACT 300859Z 3009/0106 15007KT P6SM SCT050 BKN250=



000
FTUS44 KFWD 300800 AAA
TAFFTW
TAF AMD
KFTW 300859Z 3009/0106 15006KT P6SM SCT050 BKN250=



000
FTUS44 KFWD 300500
TAFACT
TAF
KACT 300520Z 3006/0106 08006KT P6SM FEW250
     FM301100 15007KT P6SM SCT050 BKN250=



000
FTUS44 KFWD 300500
TAFDFW
TAF
KDFW 300520Z 3006/0112 11007KT P6SM FEW250
     FM301200 15006KT P6SM SCT050 BKN250=



000
FTUS44 KFWD 300500
TAFFTW
TAF
KFTW 300520Z 3006/0106 11007KT P6SM FEW250
     FM301200 15006KT P6SM SCT050 BKN250=



000
FTUS44 KFWD 300300 AAA
TAFFTW
TAF AMD
KFTW 300301Z 3003/3024 11007KT P6SM FEW060 SCT250
     FM301200 15006KT P6SM SCT050 BKN250=



000
FTUS44 KFWD 300300 AAA
TAFDFW
TAF AMD
KDFW 300301Z 3003/0106 11007KT P6SM FEW060 SCT250
     FM301200 15006KT P6SM SCT050 BKN250=



000
FTUS44 KFWD 300300 AAA
TAFACT
TAF AMD
KACT 300301Z 3003/3024 08006KT P6SM FEW060
     FM301100 15007KT P6SM SCT050 BKN250=



000
FTUS44 KFWD 292300
TAFACT
TAF
KACT 292328Z 3000/3024 08006KT P6SM FEW060
     FM301100 15007KT P6SM SCT050 BKN250=



000
FTUS44 KFWD 292300
TAFFTW
TAF
KFTW 292328Z 3000/3024 11007KT P6SM FEW060 SCT250
     FM301200 15006KT P6SM SCT050 BKN250=



000
FTUS44 KFWD 292300
TAFDFW
TAF
KDFW 292328Z 3000/0106 11007KT P6SM FEW060 SCT250
     FM301200 15006KT P6SM SCT050 BKN250=



000
FTUS44 KFWD 292000 AAA
TAFDFW
TAF AMD
KDFW 292059Z 2921/3024 06008KT P6SM SCT060
     FM300000 11007KT P6SM FEW250
     FM301200 15006KT P6SM SCT050 BKN250=



000
FTUS44 KFWD 292000 AAA
TAFACT
TAF AMD
KACT 292059Z 2921/3018 08009KT P6SM FEW060
     FM301100 15009KT P6SM SCT050 BKN250=



000
FTUS44 KFWD 292000 AAA
TAFFTW
TAF AMD
KFTW 292059Z 2921/3018 06008KT P6SM SCT060
     FM300000 11007KT P6SM FEW250
     FM301200 15006KT P6SM SCT050 BKN250=



000
FTUS44 KFWD 291700 CCA
TAFFTW
TAF COR
KFTW 291733Z 2918/3018 07010KT P6SM SCT060
     FM292200 11007KT P6SM FEW060 FEW250
     FM301200 15006KT P6SM SCT050 BKN250=



000
FTUS44 KFWD 291700
TAFDFW
TAF
KDFW 291721Z 2918/3024 07010KT P6SM SCT060
     FM292200 11007KT P6SM FEW060 FEW250
     FM301200 15006KT P6SM SCT050 BKN250=



000
FTUS44 KFWD 291700
TAFACT
TAF
KACT 291721Z 2918/3018 04006KT P6SM SCT050
     FM300000 08008KT P6SM FEW050 FEW250
     FM301100 15009KT P6SM SCT050 BKN250=



000
FTUS44 KFWD 291700
TAFFTW
TAF
KFTW 291721Z 2918/3018 06008KT P6SM SCT070
     FM300100 14008KT P6SM SCT250=



000
FTUS44 KFWD 291500 AAA
TAFFTW
TAF AMD
KFTW 291502Z 2915/3012 05008KT P6SM SCT070
     FM300100 14008KT P6SM SCT250=



000
FTUS44 KFWD 291500 AAA
TAFACT
TAF AMD
KACT 291502Z 2915/3012 03006KT P6SM SCT070
     FM300100 14008KT P6SM SCT250=



000
FTUS44 KFWD 291500 AAA
TAFDFW
TAF AMD
KDFW 291502Z 2915/3018 05008KT P6SM SCT070
     FM300100 14008KT P6SM SCT250=



000
FTUS44 KFWD 291100
TAFDFW
TAF
KDFW 291120Z 2912/3018 08008KT P6SM SCT070
     FM300100 14008KT P6SM SCT250=



000
FTUS44 KFWD 291100
TAFFTW
TAF
KFTW 291120Z 2912/3012 08008KT P6SM SCT070
     FM300100 14008KT P6SM SCT250=



000
FTUS44 KFWD 291100
TAFACT
TAF
KACT 291120Z 2912/3012 08008KT P6SM SCT070
     FM300100 14008KT P6SM SCT250=



000
FTUS44 KFWD 290900 AAA
TAFFTW
TAF AMD
KFTW 290901Z 2909/3006 08008KT P6SM FEW060=



000
FTUS44 KFWD 290900 AAA
TAFACT
TAF AMD
KACT 290901Z 2909/3006 08008KT P6SM FEW060=



000
FTUS44 KFWD 290900 AAA
TAFDFW
TAF AMD
KDFW 290901Z 2909/3012 08008KT P6SM FEW060=



000
FTUS44 KFWD 290500
TAFDFW
TAF
KDFW 290520Z 2906/3012 08006KT P6SM SKC
     FM291200 04006KT P6SM FEW060 SCT250=



000
FTUS44 KFWD 290500
TAFACT
TAF
KACT 290520Z 2906/3006 05006KT P6SM SCT250=



000
FTUS44 KFWD 290500
TAFFTW
TAF
KFTW 290520Z 2906/3006 08006KT P6SM SKC
     FM291200 04006KT P6SM FEW060 SCT250=



000
FTUS44 KFWD 290200 AAA
TAFACT
TAF AMD
KACT 290254Z 2903/2924 05006KT P6SM SCT100=



000
FTUS44 KFWD 290200 AAA
TAFDFW
TAF AMD
KDFW 290254Z 2903/3006 05006KT P6SM SCT120=



000
FTUS44 KFWD 290200 AAA
TAFFTW
TAF AMD
KFTW 290254Z 2903/2924 05006KT P6SM SCT120=



000
FTUS44 KFWD 282300
TAFACT
TAF
KACT 282335Z 2900/2924 05006KT P6SM SCT050 BKN100=



000
FTUS44 KFWD 282300
TAFDFW
TAF
KDFW 282335Z 2900/3006 03008KT P6SM SCT060 BKN090
     FM290200 06006KT P6SM SCT100=



000
FTUS44 KFWD 282300
TAFFTW
TAF
KFTW 282335Z 2900/2924 08006KT P6SM SCT060 BKN100
     FM290200 06006KT P6SM SCT120=



000
FTUS44 KFWD 282200 AAB
TAFDFW
TAF AMD
KDFW 282237Z 2823/2924 02008KT P6SM SCT060 OVC090
     FM290200 07006KT P6SM SCT100=



000
FTUS44 KFWD 282100 AAA
TAFACT
TAF AMD
KACT 282101Z 2821/2918 05006KT P6SM SCT050 SCT150=



000
FTUS44 KFWD 282100 AAA
TAFDFW
TAF AMD
KDFW 282101Z 2821/2924 08006KT P6SM SCT060 BKN100
     FM291000 05006KT P6SM FEW130=



000
FTUS44 KFWD 282100 AAA
TAFFTW
TAF AMD
KFTW 282101Z 2821/2918 08006KT P6SM SCT060 BKN080
     FM291000 05006KT P6SM FEW130=



000
FTUS44 KFWD 281700
TAFACT
TAF
KACT 281725Z 2818/2918 04008KT P6SM SCT050 SCT150=



000
FTUS44 KFWD 281700
TAFFTW
TAF
KFTW 281725Z 2818/2918 08008KT P6SM SCT060 SCT130
     FM291000 05006KT P6SM FEW130=



000
FTUS44 KFWD 281700
TAFDFW
TAF
KDFW 281725Z 2818/2924 08008KT P6SM SCT060 SCT130
     FM291000 05006KT P6SM FEW130=



000
FTUS44 KFWD 281400 AAA
TAFFTW
TAF AMD
KFTW 281453Z 2815/2912 05006KT P6SM FEW060 SCT150=



000
FTUS44 KFWD 281400 AAA
TAFDFW
TAF AMD
KDFW 281453Z 2815/2918 06006KT P6SM FEW060 SCT150=



000
FTUS44 KFWD 281400 AAA
TAFACT
TAF AMD
KACT 281453Z 2815/2912 01005KT P6SM FEW060 SCT150=



000
FTUS44 KFWD 281100
TAFACT
TAF
KACT 281120Z 2812/2912 06006KT P6SM FEW060 SCT150=



000
FTUS44 KFWD 281100
TAFFTW
TAF
KFTW 281120Z 2812/2912 06006KT P6SM FEW060 SCT150=



000
FTUS44 KFWD 281100
TAFDFW
TAF
KDFW 281120Z 2812/2918 06006KT P6SM FEW060 SCT150=



000
FTUS44 KFWD 280800 AAA
TAFACT
TAF AMD
KACT 280856Z 2809/2906 07006KT P6SM FEW060 SCT150=



000
FTUS44 KFWD 280800 AAA
TAFDFW
TAF AMD
KDFW 280856Z 2809/2912 07006KT P6SM FEW060 SCT150=



000
FTUS44 KFWD 280800 AAA
TAFFTW
TAF AMD
KFTW 280856Z 2809/2906 07006KT P6SM FEW060 SCT150=



000
FTUS44 KFWD 280500
TAFDFW
TAF
KDFW 280520Z 2806/2912 11007KT P6SM SCT250
     FM281200 05007KT P6SM FEW060 SCT250=



000
FTUS44 KFWD 280500
TAFFTW
TAF
KFTW 280520Z 2806/2906 11007KT P6SM SCT250
     FM281200 05007KT P6SM FEW060 SCT250=



000
FTUS44 KFWD 280500
TAFACT
TAF
KACT 280520Z 2806/2906 12006KT P6SM BKN120
     FM281200 06006KT P6SM BKN250=



000
FTUS44 KFWD 280200 AAA
TAFDFW
TAF AMD
KDFW 280257Z 2803/2906 11007KT P6SM FEW060 SCT250=



000
FTUS44 KFWD 280200 AAA
TAFACT
TAF AMD
KACT 280257Z 2803/2824 12006KT P6SM BKN120
     FM281200 06006KT P6SM SCT250=



000
FTUS44 KFWD 280200 AAA
TAFFTW
TAF AMD
KFTW 280257Z 2803/2824 11007KT P6SM FEW060 SCT250=



000
FTUS44 KFWD 272300
TAFFTW
TAF
KFTW 272326Z 2800/2824 11007KT P6SM SCT060 BKN250=



000
FTUS44 KFWD 272300
TAFDFW
TAF
KDFW 272326Z 2800/2906 11007KT P6SM SCT060 BKN250=



000
FTUS44 KFWD 272300
TAFACT
TAF
KACT 272326Z 2800/2824 10006KT P6SM FEW060 BKN120=



000
FTUS44 KFWD 272100 AAA
TAFFTW
TAF AMD
KFTW 272100Z 2721/2818 11007KT P6SM SCT060 BKN250=



000
FTUS44 KFWD 272100 AAA
TAFACT
TAF AMD
KACT 272100Z 2721/2818 10006KT P6SM FEW060 BKN120=



000
FTUS44 KFWD 272100 AAA
TAFDFW
TAF AMD
KDFW 272100Z 2721/2824 11007KT P6SM SCT060 BKN250=



000
FTUS44 KFWD 271700
TAFDFW
TAF
KDFW 271729Z 2718/2824 12006KT P6SM SCT060 SCT140 SCT250
     FM281700 08005KT P6SM FEW060 SCT140 BKN250=



000
FTUS44 KFWD 271700
TAFFTW
TAF
KFTW 271729Z 2718/2818 12006KT P6SM SCT060 SCT140 SCT250
     FM281700 08005KT P6SM FEW060 SCT140 BKN250=



000
FTUS44 KFWD 271700
TAFACT
TAF
KACT 271729Z 2718/2818 12006KT P6SM SCT050 BKN150
     FM280500 09003KT P6SM FEW050 BKN100=



000
FTUS44 KFWD 271500 AAA
TAFDFW
TAF AMD
KDFW 271506Z 2715/2818 10006KT P6SM SCT070 SCT150 BKN250=



000
FTUS44 KFWD 271500 AAA
TAFACT
TAF AMD
KACT 271506Z 2715/2812 05006KT P6SM SCT060 BKN150
     FM271800 11006KT P6SM SCT060 BKN150=



000
FTUS44 KFWD 271500 AAA
TAFFTW
TAF AMD
KFTW 271506Z 2715/2812 10006KT P6SM SCT070 SCT150 BKN250=



    US Dept of Commerce
    National Oceanic and Atmospheric Administration
    National Weather Service
    1325 East West Highway
    Silver Spring, MD 20910
    Page Author: NWS Internet Services Team
Disclaimer
Information Quality
Credits
Glossary
Privacy Policy
Freedom of Information Act (FOIA)
About Us
Career Opportunities